Vassan, Canada
Current Conditions -  °F | °C
As of 8:00 PM on Tuesday 25 Nov 2014 (Local Time) from CYVO Reporting Station
Light Snow Light Snow  
Wind Chill: 15°   Ceiling: 1800
Heat Index: 23°   Visibility: 5mi
Dew Point: 21°   Wind: 7mph
Humidity: 93%   Direction: 300°WNW
Pressure: 29.84"   Gusts: NA
Location:  48.27°N, 77.98°W
Report Text: CYVO 260100Z 30006KT 5SM -SN SCT010 OVC018 M05/M06 A2984 RMK SF4SC4 SLP129
Loading
Personal Weather Stations






























Interactive Weather Map New forecast layout! Learn more

10-Day Weather Forecast

Advertisements
Track Severe Weather on mobile